createdAt,value
2019-05-16T00:00:08.300Z,1022.03
2019-05-16T00:01:01.814Z,1021.94
2019-05-16T00:02:02.112Z,1021.94
2019-05-16T00:03:02.330Z,1021.94
2019-05-16T00:04:02.534Z,1021.94
2019-05-16T00:05:01.823Z,1022.01
2019-05-16T00:06:01.950Z,1022.01
2019-05-16T00:07:02.193Z,1022.01
2019-05-16T00:08:02.433Z,1022.01
2019-05-16T00:09:02.582Z,1021.96
2019-05-16T00:10:01.792Z,1021.96
2019-05-16T00:11:01.912Z,1021.96
2019-05-16T00:12:02.163Z,1021.96
2019-05-16T00:13:02.377Z,1021.95
2019-05-16T00:14:02.541Z,1021.95
2019-05-16T00:15:02.468Z,1021.95
2019-05-16T00:16:01.667Z,1021.95
2019-05-16T00:17:01.863Z,1021.91
2019-05-16T00:18:02.110Z,1021.91
2019-05-16T00:19:01.896Z,1021.91
2019-05-16T00:20:02.255Z,1021.91
2019-05-16T00:21:02.432Z,1021.92
2019-05-16T00:22:01.677Z,1021.92
2019-05-16T00:23:01.943Z,1021.92
2019-05-16T00:24:02.240Z,1021.92
2019-05-16T00:25:02.514Z,1021.88
2019-05-16T00:26:01.758Z,1021.88
2019-05-16T00:27:01.958Z,1021.88
2019-05-16T00:28:02.097Z,1021.88
2019-05-16T00:29:02.342Z,1021.92
2019-05-16T00:30:02.638Z,1021.92
2019-05-16T00:31:01.946Z,1021.92
2019-05-16T00:32:02.084Z,1021.92
2019-05-16T00:33:02.283Z,1021.92
2019-05-16T00:34:02.530Z,1021.92
2019-05-16T00:35:01.817Z,1021.92
2019-05-16T00:36:08.645Z,1021.92
2019-05-16T00:37:02.246Z,1021.81
2019-05-16T00:38:02.503Z,1021.81
2019-05-16T00:39:01.767Z,1021.81
2019-05-16T00:40:02.660Z,1021.81
2019-05-16T00:41:01.692Z,1021.79
2019-05-16T00:42:01.940Z,1021.79
2019-05-16T00:43:02.132Z,1021.79
2019-05-16T00:44:02.352Z,1021.79
2019-05-16T00:45:02.538Z,1021.83
2019-05-16T00:46:01.699Z,1021.83
2019-05-16T00:47:01.825Z,1021.83
2019-05-16T00:48:02.042Z,1021.83
2019-05-16T00:49:02.487Z,1021.75
2019-05-16T00:50:01.671Z,1021.75
2019-05-16T00:51:01.994Z,1021.75
2019-05-16T00:52:02.018Z,1021.75
2019-05-16T00:53:02.195Z,1021.72
2019-05-16T00:54:02.541Z,1021.72
2019-05-16T00:55:01.710Z,1021.72
2019-05-16T00:56:01.987Z,1021.72
2019-05-16T00:57:02.188Z,1021.71
2019-05-16T00:58:02.418Z,1021.71
2019-05-16T00:59:01.754Z,1021.71
2019-05-16T01:00:03.753Z,1021.88
2019-05-16T01:01:02.616Z,1021.88
2019-05-16T01:02:01.830Z,1021.88
2019-05-16T01:03:02.036Z,1021.88
2019-05-16T01:04:02.357Z,1021.68
2019-05-16T01:05:02.590Z,1021.68
2019-05-16T01:06:01.741Z,1021.68
2019-05-16T01:07:02.185Z,1021.68
2019-05-16T01:08:02.263Z,1021.64
2019-05-16T01:09:02.593Z,1021.64
2019-05-16T01:10:01.851Z,1021.64
2019-05-16T01:11:02.052Z,1021.64
2019-05-16T01:12:02.219Z,1021.55
2019-05-16T01:13:02.364Z,1021.55
2019-05-16T01:14:02.599Z,1021.55
2019-05-16T01:15:01.925Z,1021.55
2019-05-16T01:16:02.068Z,1021.51
2019-05-16T01:17:02.273Z,1021.51
2019-05-16T01:18:02.492Z,1021.51
2019-05-16T01:19:01.984Z,1021.51
2019-05-16T01:20:02.026Z,1021.59
2019-05-16T01:21:02.236Z,1021.59
2019-05-16T01:22:02.526Z,1021.59
2019-05-16T01:23:01.689Z,1021.59
2019-05-16T01:24:01.922Z,1021.51
2019-05-16T01:25:02.159Z,1021.51
2019-05-16T01:26:02.288Z,1021.51
2019-05-16T01:27:02.464Z,1021.51
2019-05-16T01:28:01.739Z,1021.54
2019-05-16T01:29:01.949Z,1021.54
2019-05-16T01:30:02.024Z,1021.54
2019-05-16T01:31:02.050Z,1021.54
2019-05-16T01:32:02.305Z,1021.44
2019-05-16T01:33:02.610Z,1021.44
2019-05-16T01:34:01.819Z,1021.44
2019-05-16T01:35:02.017Z,1021.44
2019-05-16T01:36:02.281Z,1021.48
2019-05-16T01:37:02.018Z,1021.48
2019-05-16T01:38:02.329Z,1021.48
2019-05-16T01:39:02.579Z,1021.48
2019-05-16T01:40:01.646Z,1021.44
2019-05-16T01:41:01.929Z,1021.44
2019-05-16T01:42:02.153Z,1021.44
2019-05-16T01:43:02.389Z,1021.44
2019-05-16T01:44:02.647Z,1021.42
2019-05-16T01:45:01.884Z,1021.42
2019-05-16T01:46:02.115Z,1021.42
2019-05-16T01:47:02.348Z,1021.42
2019-05-16T01:48:02.548Z,1021.38
2019-05-16T01:49:02.539Z,1021.38
2019-05-16T01:50:01.794Z,1021.38
2019-05-16T01:51:01.978Z,1021.38
2019-05-16T01:52:02.179Z,1021.48
2019-05-16T01:53:02.404Z,1021.48
2019-05-16T01:54:01.887Z,1021.48
2019-05-16T01:55:02.013Z,1021.48
2019-05-16T01:56:01.884Z,1021.31
2019-05-16T01:57:02.161Z,1021.31
2019-05-16T01:58:02.357Z,1021.31
2019-05-16T01:59:02.042Z,1021.31
2019-05-16T02:00:03.659Z,1021.36
2019-05-16T02:01:16.045Z,1021.36
2019-05-16T02:02:01.689Z,1021.36
2019-05-16T02:03:01.896Z,1021.36
2019-05-16T02:04:01.900Z,1021.26
2019-05-16T02:05:02.195Z,1021.26
2019-05-16T02:06:02.473Z,1021.26
2019-05-16T02:07:02.615Z,1021.26
2019-05-16T02:08:01.821Z,1021.26
2019-05-16T02:09:02.098Z,1021.26
2019-05-16T02:10:02.282Z,1021.26
2019-05-16T02:11:02.575Z,1021.26
2019-05-16T02:12:01.725Z,1021.22
2019-05-16T02:13:02.022Z,1021.22
2019-05-16T02:14:02.173Z,1021.22
2019-05-16T02:15:02.442Z,1021.22
2019-05-16T02:16:01.699Z,1021.2
2019-05-16T02:17:01.829Z,1021.2
2019-05-16T02:18:02.177Z,1021.2
2019-05-16T02:19:02.396Z,1021.2
2019-05-16T02:20:02.679Z,1021.23
2019-05-16T02:21:01.835Z,1021.23
2019-05-16T02:22:02.042Z,1021.23
2019-05-16T02:23:02.313Z,1021.23
2019-05-16T02:24:02.528Z,1021.2
2019-05-16T02:25:01.699Z,1021.2
2019-05-16T02:26:01.868Z,1021.2
2019-05-16T02:27:02.135Z,1021.2
2019-05-16T02:28:02.417Z,1021.17
2019-05-16T02:29:02.628Z,1021.17
2019-05-16T02:30:01.790Z,1021.17
2019-05-16T02:31:01.982Z,1021.17
2019-05-16T02:32:02.550Z,1021.18
2019-05-16T02:33:02.441Z,1021.18
2019-05-16T02:34:05.374Z,1021.18
2019-05-16T02:35:01.855Z,1021.18
2019-05-16T02:36:02.403Z,1021.2
2019-05-16T02:37:29.735Z,1021.2
2019-05-16T02:38:02.302Z,1021.2
2019-05-16T02:39:02.636Z,1021.13
2019-05-16T02:40:02.199Z,1021.13
2019-05-16T02:41:03.854Z,1021.13
2019-05-16T02:42:02.223Z,1021.13
2019-05-16T02:43:02.585Z,1021.04
2019-05-16T02:44:02.641Z,1021.04
2019-05-16T02:45:02.965Z,1021.04
2019-05-16T02:46:02.242Z,1021.04
2019-05-16T02:47:02.338Z,1021
2019-05-16T02:48:02.628Z,1021
2019-05-16T02:49:01.837Z,1021
2019-05-16T02:50:02.026Z,1021
2019-05-16T02:51:02.471Z,1021.06
2019-05-16T02:52:02.387Z,1021.06
2019-05-16T02:53:02.091Z,1021.06
2019-05-16T02:54:01.963Z,1021.06
2019-05-16T02:55:02.238Z,1021.04
2019-05-16T02:56:02.394Z,1021.04
2019-05-16T02:57:01.922Z,1021.04
2019-05-16T02:58:01.897Z,1021.04
2019-05-16T02:59:02.198Z,1021.13
2019-05-16T03:00:02.750Z,1021.13
2019-05-16T03:01:02.602Z,1021.13
2019-05-16T03:02:01.865Z,1021.13
2019-05-16T03:03:02.142Z,1020.9
2019-05-16T03:04:02.317Z,1020.9
2019-05-16T03:05:02.616Z,1020.9
2019-05-16T03:06:01.966Z,1020.9
2019-05-16T03:07:02.498Z,1020.91
2019-05-16T03:08:01.746Z,1020.91
2019-05-16T03:09:05.858Z,1020.91
2019-05-16T03:10:02.666Z,1020.91
2019-05-16T03:11:02.552Z,1020.98
2019-05-16T03:12:02.647Z,1020.98
2019-05-16T03:13:01.833Z,1020.98
2019-05-16T03:14:02.138Z,1020.98
2019-05-16T03:15:03.109Z,1020.95
2019-05-16T03:16:02.627Z,1020.95
2019-05-16T03:17:01.815Z,1020.95
2019-05-16T03:18:04.985Z,1020.95
2019-05-16T03:19:02.339Z,1020.82
2019-05-16T03:20:02.643Z,1020.82
2019-05-16T03:21:11.568Z,1020.82
2019-05-16T03:22:01.994Z,1020.82
2019-05-16T03:23:02.822Z,1020.74
2019-05-16T03:24:02.429Z,1020.74
2019-05-16T03:25:02.671Z,1020.74
2019-05-16T03:26:01.903Z,1020.74
2019-05-16T03:27:02.282Z,1020.79
2019-05-16T03:28:02.732Z,1020.79
2019-05-16T03:29:02.544Z,1020.79
2019-05-16T03:30:02.917Z,1020.79
2019-05-16T03:31:06.548Z,1020.72
2019-05-16T03:32:03.917Z,1020.72
2019-05-16T03:33:06.124Z,1020.72
2019-05-16T03:34:14.963Z,1020.72
2019-05-16T03:35:06.291Z,1020.7
2019-05-16T03:36:05.639Z,1020.7
2019-05-16T03:37:05.399Z,1020.7
2019-05-16T03:38:06.341Z,1020.7
2019-05-16T03:39:01.797Z,1020.58
2019-05-16T03:40:01.756Z,1020.58
2019-05-16T03:41:01.990Z,1020.58
2019-05-16T03:42:02.216Z,1020.58
2019-05-16T03:43:02.466Z,1020.6
2019-05-16T03:44:01.837Z,1020.6
2019-05-16T03:45:02.721Z,1020.6
2019-05-16T03:46:03.144Z,1020.6
2019-05-16T03:47:02.290Z,1020.61
2019-05-16T03:48:03.716Z,1020.61
2019-05-16T03:49:03.040Z,1020.61
2019-05-16T03:50:02.082Z,1020.61
2019-05-16T03:51:02.388Z,1020.58
2019-05-16T03:52:02.450Z,1020.58
2019-05-16T03:53:02.193Z,1020.58
2019-05-16T03:54:03.327Z,1020.58
2019-05-16T03:55:02.494Z,1020.6
2019-05-16T03:56:02.385Z,1020.6
2019-05-16T03:57:02.015Z,1020.6
2019-05-16T03:58:02.206Z,1020.6
2019-05-16T03:59:02.338Z,1020.59
2019-05-16T04:00:04.891Z,1020.59
2019-05-16T04:01:03.022Z,1020.59
2019-05-16T04:02:02.134Z,1020.59
2019-05-16T04:03:02.285Z,1020.56
2019-05-16T04:04:02.462Z,1020.56
2019-05-16T04:05:02.711Z,1020.56
2019-05-16T04:06:02.006Z,1020.56
2019-05-16T04:07:02.167Z,1020.52
2019-05-16T04:08:23.843Z,1020.52
2019-05-16T04:09:02.180Z,1020.52
2019-05-16T04:10:02.734Z,1020.52
2019-05-16T04:11:02.177Z,1020.64
2019-05-16T04:12:02.399Z,1020.64
2019-05-16T04:13:02.720Z,1020.64
2019-05-16T04:14:01.994Z,1020.64
2019-05-16T04:15:02.590Z,1020.56
2019-05-16T04:16:02.257Z,1020.56
2019-05-16T04:17:02.504Z,1020.56
2019-05-16T04:18:01.917Z,1020.58
2019-05-16T04:19:02.367Z,1020.58
2019-05-16T04:20:02.829Z,1020.58
2019-05-16T04:21:02.422Z,1020.58
2019-05-16T04:22:02.663Z,1020.54
2019-05-16T04:23:01.797Z,1020.54
2019-05-16T04:24:02.022Z,1020.54
2019-05-16T04:25:02.566Z,1020.54
2019-05-16T04:26:02.641Z,1020.63
2019-05-16T04:27:01.774Z,1020.63
2019-05-16T04:28:02.121Z,1020.63
2019-05-16T04:29:02.384Z,1020.63
2019-05-16T04:30:02.607Z,1020.63
2019-05-16T04:31:02.657Z,1020.63
2019-05-16T04:32:02.169Z,1020.63
2019-05-16T04:33:02.302Z,1020.63
2019-05-16T04:34:02.542Z,1020.48
2019-05-16T04:35:03.134Z,1020.48
2019-05-16T04:36:01.957Z,1020.48
2019-05-16T04:37:02.224Z,1020.48
2019-05-16T04:38:02.410Z,1020.6
2019-05-16T04:39:02.692Z,1020.6
2019-05-16T04:40:02.451Z,1020.6
2019-05-16T04:41:02.190Z,1020.6
2019-05-16T04:42:02.329Z,1020.59
2019-05-16T04:43:02.534Z,1020.59
2019-05-16T04:44:05.385Z,1020.59
2019-05-16T04:45:02.186Z,1020.59
2019-05-16T04:46:02.370Z,1020.63
2019-05-16T04:47:02.621Z,1020.63
2019-05-16T04:48:01.834Z,1020.63
2019-05-16T04:49:02.221Z,1020.63
2019-05-16T04:50:02.452Z,1020.64
2019-05-16T04:51:02.435Z,1020.64
2019-05-16T04:52:01.686Z,1020.64
2019-05-16T04:53:01.840Z,1020.64
2019-05-16T04:54:07.343Z,1020.85
2019-05-16T04:55:02.271Z,1020.85
2019-05-16T04:56:02.503Z,1020.85
2019-05-16T04:57:02.599Z,1020.85
2019-05-16T04:58:02.006Z,1020.69
2019-05-16T04:59:02.162Z,1020.69
2019-05-16T05:00:04.329Z,1020.69
2019-05-16T05:01:02.300Z,1020.69
2019-05-16T05:02:02.784Z,1020.8
2019-05-16T05:03:02.540Z,1020.8
2019-05-16T05:04:15.396Z,1020.8
2019-05-16T05:05:01.895Z,1020.8
2019-05-16T05:06:02.142Z,1020.73
2019-05-16T05:07:02.339Z,1020.73
2019-05-16T05:08:02.540Z,1020.73
2019-05-16T05:09:03.967Z,1020.73
2019-05-16T05:10:02.037Z,1020.74
2019-05-16T05:11:02.268Z,1020.74
2019-05-16T05:12:05.224Z,1020.74
2019-05-16T05:13:02.030Z,1020.74
2019-05-16T05:14:01.824Z,1020.73
2019-05-16T05:15:02.109Z,1020.73
2019-05-16T05:16:02.374Z,1020.73
2019-05-16T05:17:05.769Z,1020.73
2019-05-16T05:18:01.750Z,1020.73
2019-05-16T05:19:01.951Z,1020.73
2019-05-16T05:20:02.308Z,1020.73
2019-05-16T05:21:02.539Z,1020.73
2019-05-16T05:22:01.683Z,1020.65
2019-05-16T05:23:01.882Z,1020.65
2019-05-16T05:24:01.853Z,1020.65
2019-05-16T05:25:02.069Z,1020.65
2019-05-16T05:26:02.481Z,1020.73
2019-05-16T05:27:02.546Z,1020.73
2019-05-16T05:28:01.832Z,1020.73
2019-05-16T05:29:01.998Z,1020.73
2019-05-16T05:30:02.290Z,1020.62
2019-05-16T05:31:01.912Z,1020.62
2019-05-16T05:32:05.617Z,1020.62
2019-05-16T05:33:02.178Z,1020.62
2019-05-16T05:34:02.343Z,1020.68
2019-05-16T05:35:02.684Z,1020.68
2019-05-16T05:36:01.874Z,1020.68
2019-05-16T05:37:02.137Z,1020.68
2019-05-16T05:38:02.356Z,1020.62
2019-05-16T05:39:15.468Z,1020.62
2019-05-16T05:40:02.570Z,1020.62
2019-05-16T05:41:02.590Z,1020.62
2019-05-16T05:42:01.724Z,1020.59
2019-05-16T05:43:02.028Z,1020.59
2019-05-16T05:44:02.189Z,1020.59
2019-05-16T05:45:02.471Z,1020.59
2019-05-16T05:46:01.738Z,1020.52
2019-05-16T05:47:02.064Z,1020.52
2019-05-16T05:48:01.947Z,1020.52
2019-05-16T05:49:02.101Z,1020.52
2019-05-16T05:50:02.465Z,1020.62
2019-05-16T05:51:02.635Z,1020.62
2019-05-16T05:52:01.828Z,1020.62
2019-05-16T05:53:01.943Z,1020.62
2019-05-16T05:54:02.068Z,1020.7
2019-05-16T05:55:02.385Z,1020.7
2019-05-16T05:56:02.597Z,1020.7
2019-05-16T05:57:01.792Z,1020.7
2019-05-16T05:58:01.797Z,1020.57
2019-05-16T05:59:01.947Z,1020.57
2019-05-16T06:00:04.038Z,1020.57
2019-05-16T06:01:02.210Z,1020.49
2019-05-16T06:02:02.478Z,1020.49
2019-05-16T06:03:02.608Z,1020.49
2019-05-16T06:04:01.980Z,1020.49
2019-05-16T06:05:02.149Z,1020.44
2019-05-16T06:06:02.415Z,1020.44
2019-05-16T06:07:01.689Z,1020.44
2019-05-16T06:08:01.889Z,1020.44
2019-05-16T06:09:02.114Z,1020.5
2019-05-16T06:10:02.326Z,1020.5
2019-05-16T06:11:02.521Z,1020.5
2019-05-16T06:12:01.782Z,1020.5
2019-05-16T06:13:01.921Z,1020.52
2019-05-16T06:14:02.241Z,1020.52
2019-05-16T06:15:12.639Z,1020.52
2019-05-16T06:16:01.660Z,1020.52
2019-05-16T06:17:02.615Z,1020.45
2019-05-16T06:18:01.861Z,1020.45
2019-05-16T06:19:02.019Z,1020.45
2019-05-16T06:20:02.372Z,1020.45
2019-05-16T06:21:02.443Z,1020.27
2019-05-16T06:22:02.070Z,1020.27
2019-05-16T06:23:01.894Z,1020.27
2019-05-16T06:24:02.217Z,1020.27
2019-05-16T06:25:02.477Z,1020.47
2019-05-16T06:26:01.672Z,1020.47
2019-05-16T06:27:01.911Z,1020.47
2019-05-16T06:28:02.021Z,1020.47
2019-05-16T06:29:02.222Z,1020.53
2019-05-16T06:30:02.543Z,1020.53
2019-05-16T06:31:02.918Z,1020.53
2019-05-16T06:32:02.480Z,1020.53
2019-05-16T06:33:02.613Z,1020.45
2019-05-16T06:34:14.987Z,1020.45
2019-05-16T06:35:02.152Z,1020.45
2019-05-16T06:36:02.364Z,1020.45
2019-05-16T06:37:02.544Z,1020.4
2019-05-16T06:38:01.659Z,1020.4
2019-05-16T06:39:01.860Z,1020.4
2019-05-16T06:40:02.195Z,1020.4
2019-05-16T06:41:02.417Z,1020.44
2019-05-16T06:42:02.545Z,1020.44
2019-05-16T06:43:01.745Z,1020.44
2019-05-16T06:44:02.021Z,1020.44
2019-05-16T06:45:02.328Z,1020.39
2019-05-16T06:46:02.626Z,1020.39
2019-05-16T06:47:22.802Z,1020.39
2019-05-16T06:48:02.042Z,1020.39
2019-05-16T06:49:02.279Z,1020.33
2019-05-16T06:50:02.686Z,1020.33
2019-05-16T06:51:03.584Z,1020.33
2019-05-16T06:52:02.261Z,1020.33
2019-05-16T06:53:02.312Z,1020.44
2019-05-16T06:54:02.512Z,1020.44
2019-05-16T06:55:01.739Z,1020.44
2019-05-16T06:56:01.979Z,1020.44
2019-05-16T06:57:02.353Z,1020.41
2019-05-16T06:58:02.460Z,1020.41
2019-05-16T06:59:01.753Z,1020.41
2019-05-16T07:00:04.292Z,1020.41
2019-05-16T07:01:04.123Z,1020.44
2019-05-16T07:02:02.365Z,1020.44
2019-05-16T07:03:02.538Z,1020.44
2019-05-16T07:04:01.805Z,1020.44
2019-05-16T07:05:02.097Z,1020.36
2019-05-16T07:06:02.202Z,1020.36
2019-05-16T07:07:03.583Z,1020.36
2019-05-16T07:08:02.612Z,1020.36
2019-05-16T07:09:01.818Z,1020.43
2019-05-16T07:10:05.163Z,1020.43
2019-05-16T07:11:02.404Z,1020.43
2019-05-16T07:12:02.607Z,1020.43
2019-05-16T07:13:01.820Z,1020.25
2019-05-16T07:14:02.127Z,1020.25
2019-05-16T07:15:02.652Z,1020.25
2019-05-16T07:16:02.665Z,1020.25
2019-05-16T07:17:02.012Z,1020.26
2019-05-16T07:18:02.177Z,1020.26
2019-05-16T07:19:02.311Z,1020.26
2019-05-16T07:20:02.616Z,1020.26
2019-05-16T07:21:01.842Z,1020.27
2019-05-16T07:22:01.970Z,1020.27
2019-05-16T07:23:02.017Z,1020.27
2019-05-16T07:24:02.202Z,1020.27
2019-05-16T07:25:02.434Z,1020.36
2019-05-16T07:26:01.677Z,1020.36
2019-05-16T07:27:01.844Z,1020.36
2019-05-16T07:28:01.959Z,1020.36
2019-05-16T07:29:02.151Z,1020.41
2019-05-16T07:30:02.559Z,1020.41
2019-05-16T07:31:18.829Z,1020.41
2019-05-16T07:32:01.806Z,1020.41
2019-05-16T07:33:01.994Z,1020.22
2019-05-16T07:34:02.226Z,1020.22
2019-05-16T07:35:03.023Z,1020.22
2019-05-16T07:36:01.823Z,1020.22
2019-05-16T07:37:01.945Z,1020.21
2019-05-16T07:38:02.177Z,1020.21
2019-05-16T07:39:02.501Z,1020.21
2019-05-16T07:40:26.614Z,1020.21
2019-05-16T07:41:01.950Z,1020.22
2019-05-16T07:42:02.147Z,1020.22
2019-05-16T07:43:02.320Z,1020.22
2019-05-16T07:44:02.502Z,1020.25
2019-05-16T07:45:01.891Z,1020.25
2019-05-16T07:46:02.194Z,1020.25
2019-05-16T07:47:02.253Z,1020.25
2019-05-16T07:48:02.510Z,1020.1
2019-05-16T07:49:01.713Z,1020.1
2019-05-16T07:50:01.948Z,1020.1
2019-05-16T07:51:02.477Z,1020.1
2019-05-16T07:52:02.507Z,1020.19
2019-05-16T07:53:02.638Z,1020.19
2019-05-16T07:54:01.828Z,1020.19
2019-05-16T07:55:04.427Z,1020.19
2019-05-16T07:56:02.390Z,1020.16
2019-05-16T07:57:18.860Z,1020.16
2019-05-16T07:58:01.828Z,1020.16
2019-05-16T07:59:02.059Z,1020.16
2019-05-16T08:00:04.688Z,1020.01
2019-05-16T08:01:12.428Z,1020.01
2019-05-16T08:02:02.614Z,1020.01
2019-05-16T08:03:01.943Z,1020.01
2019-05-16T08:04:02.293Z,1020.07
2019-05-16T08:05:02.402Z,1020.07
2019-05-16T08:06:02.708Z,1020.07
2019-05-16T08:07:05.281Z,1020.07
2019-05-16T08:08:02.027Z,1020.1
2019-05-16T08:09:02.227Z,1020.1
2019-05-16T08:10:02.456Z,1020.1
2019-05-16T08:11:02.181Z,1020.1
2019-05-16T08:12:06.108Z,1020.04
2019-05-16T08:13:03.877Z,1020.04
2019-05-16T08:14:02.388Z,1020.04
2019-05-16T08:15:01.799Z,1020.04
2019-05-16T08:16:02.033Z,1019.94
2019-05-16T08:17:02.231Z,1019.94
2019-05-16T08:18:03.730Z,1019.94
2019-05-16T08:19:01.684Z,1019.94
2019-05-16T08:20:01.960Z,1019.97
2019-05-16T08:21:02.159Z,1019.97
2019-05-16T08:22:02.414Z,1019.97
2019-05-16T08:23:02.611Z,1019.97
2019-05-16T08:24:14.618Z,1020.04
2019-05-16T08:25:02.164Z,1020.04
2019-05-16T08:26:02.334Z,1020.04
2019-05-16T08:27:02.586Z,1020.04
2019-05-16T08:28:01.896Z,1019.86
2019-05-16T08:29:02.555Z,1019.86
2019-05-16T08:30:03.022Z,1019.86
2019-05-16T08:31:01.813Z,1019.86
2019-05-16T08:32:02.600Z,1019.91
2019-05-16T08:33:03.027Z,1019.91
2019-05-16T08:34:01.939Z,1019.91
2019-05-16T08:35:02.261Z,1019.91
2019-05-16T08:36:11.882Z,1019.71
2019-05-16T08:37:02.414Z,1019.71
2019-05-16T08:38:02.170Z,1019.71
2019-05-16T08:39:02.370Z,1019.71
2019-05-16T08:40:02.653Z,1019.73
2019-05-16T08:43:02.315Z,1019.73
2019-05-16T08:43:06.855Z,1019.73
2019-05-16T08:44:02.521Z,1019.86
2019-05-16T08:44:07.438Z,1019.73
2019-05-16T08:45:02.588Z,1019.86
2019-05-16T08:46:02.054Z,1019.86
2019-05-16T08:47:06.767Z,1019.86
2019-05-16T08:48:02.573Z,1019.78
2019-05-16T08:49:01.903Z,1019.78
2019-05-16T08:50:02.124Z,1019.78
2019-05-16T08:51:03.460Z,1019.78
2019-05-16T08:52:02.558Z,1019.64
2019-05-16T08:53:03.259Z,1019.64
2019-05-16T08:54:02.044Z,1019.64
2019-05-16T08:55:03.948Z,1019.64
2019-05-16T08:56:03.151Z,1019.7
2019-05-16T08:58:03.138Z,1019.7
2019-05-16T08:59:04.573Z,1019.7
2019-05-16T08:59:14.483Z,1019.7
2019-05-16T09:00:05.096Z,1019.66
2019-05-16T09:01:03.019Z,1019.66
2019-05-16T09:02:03.847Z,1019.66
2019-05-16T09:03:02.438Z,1019.66
2019-05-16T09:04:01.993Z,1019.66
2019-05-16T09:05:06.392Z,1019.66
2019-05-16T09:06:03.668Z,1019.66
2019-05-16T09:07:02.525Z,1019.66
2019-05-16T09:08:02.616Z,1019.57
2019-05-16T09:09:40.388Z,1019.57
2019-05-16T09:10:02.160Z,1019.57
2019-05-16T09:11:43.536Z,1019.57
2019-05-16T09:12:02.490Z,1019.52
2019-05-16T09:13:01.748Z,1019.52
2019-05-16T09:14:02.181Z,1019.52
2019-05-16T09:15:02.259Z,1019.52
2019-05-16T09:16:02.590Z,1019.51
2019-05-16T09:17:02.352Z,1019.51
2019-05-16T09:18:02.552Z,1019.51
2019-05-16T09:19:02.561Z,1019.51
2019-05-16T09:20:01.840Z,1019.59
2019-05-16T09:21:01.963Z,1019.59
2019-05-16T09:22:02.244Z,1019.59
2019-05-16T09:23:02.432Z,1019.59
2019-05-16T09:24:02.263Z,1019.54
2019-05-16T09:25:02.892Z,1019.54
2019-05-16T09:26:01.755Z,1019.54
2019-05-16T09:27:02.111Z,1019.54
2019-05-16T09:28:02.139Z,1019.46
2019-05-16T09:29:02.434Z,1019.46
2019-05-16T09:30:02.793Z,1019.46
2019-05-16T09:31:01.837Z,1019.39
2019-05-16T09:32:27.073Z,1019.39
2019-05-16T09:33:02.235Z,1019.39
2019-05-16T09:34:02.442Z,1019.39
2019-05-16T09:35:01.712Z,1019.42
2019-05-16T09:36:01.963Z,1019.42
2019-05-16T09:37:02.647Z,1019.42
2019-05-16T09:38:02.434Z,1019.42
2019-05-16T09:39:02.644Z,1019.37
2019-05-16T09:40:01.964Z,1019.37
2019-05-16T09:41:02.267Z,1019.37
2019-05-16T09:42:02.500Z,1019.37
2019-05-16T09:43:01.750Z,1019.5
2019-05-16T09:44:01.863Z,1019.5
2019-05-16T09:45:02.139Z,1019.5
2019-05-16T09:46:04.438Z,1019.5
2019-05-16T09:47:02.559Z,1019.48
2019-05-16T09:48:01.830Z,1019.48
2019-05-16T09:49:24.390Z,1019.48
2019-05-16T09:50:02.611Z,1019.48
2019-05-16T09:51:01.723Z,1019.45
2019-05-16T09:52:01.979Z,1019.45
2019-05-16T09:53:02.144Z,1019.45
2019-05-16T09:54:02.357Z,1019.45
2019-05-16T09:55:02.703Z,1019.38
2019-05-16T09:56:01.841Z,1019.38
2019-05-16T09:57:02.159Z,1019.38
2019-05-16T09:58:02.356Z,1019.38
2019-05-16T09:59:02.517Z,1019.32
2019-05-16T10:00:07.146Z,1019.32
2019-05-16T10:01:01.903Z,1019.32
2019-05-16T10:02:02.239Z,1019.32
2019-05-16T10:03:02.345Z,1019.36
2019-05-16T10:04:02.573Z,1019.36
2019-05-16T10:05:01.820Z,1019.36
2019-05-16T10:06:02.064Z,1019.36
2019-05-16T10:07:02.276Z,1019.22
2019-05-16T10:08:02.475Z,1019.22
2019-05-16T10:09:01.650Z,1019.22
2019-05-16T10:10:01.880Z,1019.22
2019-05-16T10:11:02.174Z,1019.14
2019-05-16T10:12:18.421Z,1019.14
2019-05-16T10:13:02.623Z,1019.14
2019-05-16T10:14:01.810Z,1019.14
2019-05-16T10:15:02.068Z,1019.23
2019-05-16T10:16:02.249Z,1019.23
2019-05-16T10:17:02.442Z,1019.23
2019-05-16T10:18:01.665Z,1019.23
2019-05-16T10:19:01.850Z,1019.18
2019-05-16T10:20:02.193Z,1019.18
2019-05-16T10:21:02.372Z,1019.18
2019-05-16T10:22:02.602Z,1019.18
2019-05-16T10:23:01.982Z,1019.08
2019-05-16T10:24:01.994Z,1019.08
2019-05-16T10:25:02.376Z,1019.08
2019-05-16T10:26:02.577Z,1019.08
2019-05-16T10:27:01.794Z,1019.04
2019-05-16T10:28:01.901Z,1019.04
2019-05-16T10:29:02.186Z,1019.04
2019-05-16T10:30:02.701Z,1019.04
2019-05-16T10:31:02.577Z,1019.08
2019-05-16T10:32:01.763Z,1019.08
2019-05-16T10:33:02.033Z,1019.08
2019-05-16T10:34:02.639Z,1019.08
2019-05-16T10:35:02.681Z,1018.93
2019-05-16T10:36:01.886Z,1018.93
2019-05-16T10:37:02.042Z,1018.93
2019-05-16T10:38:02.284Z,1018.93
2019-05-16T10:39:02.584Z,1019.02
2019-05-16T10:40:02.685Z,1019.02
2019-05-16T10:41:01.919Z,1019.02
2019-05-16T10:42:02.275Z,1019.02
2019-05-16T10:43:02.407Z,1019.01
2019-05-16T10:44:01.700Z,1019.01
2019-05-16T10:45:01.972Z,1019.01
2019-05-16T10:46:02.108Z,1019.01
2019-05-16T10:47:02.338Z,1018.88
2019-05-16T10:48:01.726Z,1018.88
2019-05-16T10:49:01.942Z,1018.88
2019-05-16T10:50:02.199Z,1018.88
2019-05-16T10:51:02.437Z,1018.85
2019-05-16T10:52:02.244Z,1018.85
2019-05-16T10:54:14.234Z,1018.85
2019-05-16T10:55:03.261Z,1018.83
2019-05-16T10:56:02.156Z,1018.83
2019-05-16T10:57:02.262Z,1018.83
2019-05-16T10:58:02.258Z,1018.83
2019-05-16T11:00:01.853Z,1018.76
2019-05-16T11:00:41.458Z,1018.76
2019-05-16T11:01:28.727Z,1018.76
2019-05-16T11:02:02.613Z,1018.76
2019-05-16T11:03:01.839Z,1018.76
2019-05-16T11:04:01.914Z,1018.76
2019-05-16T11:05:33.221Z,1018.76
2019-05-16T11:06:24.393Z,1018.76
2019-05-16T11:07:02.634Z,1018.7
2019-05-16T11:08:02.428Z,1018.7
2019-05-16T11:09:02.010Z,1018.7
2019-05-16T11:10:06.981Z,1018.69
2019-05-16T11:11:02.471Z,1018.69
2019-05-16T11:12:01.722Z,1018.69
2019-05-16T11:13:02.013Z,1018.69
2019-05-16T11:14:02.150Z,1018.62
2019-05-16T11:15:02.450Z,1018.62
2019-05-16T11:16:02.599Z,1018.62
2019-05-16T11:17:01.820Z,1018.62
2019-05-16T11:18:02.198Z,1018.6
2019-05-16T11:19:24.280Z,1018.6
2019-05-16T11:20:02.503Z,1018.6
2019-05-16T11:21:01.732Z,1018.6
2019-05-16T11:22:01.964Z,1018.6
2019-05-16T11:23:02.312Z,1018.6
2019-05-16T11:24:02.452Z,1018.6
2019-05-16T11:25:16.390Z,1018.6
2019-05-16T11:26:01.912Z,1018.52
2019-05-16T11:27:02.169Z,1018.52
2019-05-16T11:28:02.394Z,1018.52
2019-05-16T11:29:02.259Z,1018.52
2019-05-16T11:30:02.619Z,1018.62
2019-05-16T11:31:07.386Z,1018.62
2019-05-16T11:32:01.991Z,1018.62
2019-05-16T11:33:02.138Z,1018.62
2019-05-16T11:34:02.292Z,1018.45
2019-05-16T11:35:02.568Z,1018.45
2019-05-16T11:36:01.729Z,1018.45
2019-05-16T11:37:01.693Z,1018.45
2019-05-16T11:38:01.959Z,1018.41
2019-05-16T11:39:02.328Z,1018.41
2019-05-16T11:40:02.559Z,1018.41
2019-05-16T11:41:01.787Z,1018.41
2019-05-16T11:42:01.999Z,1018.46
2019-05-16T11:43:19.125Z,1018.46
2019-05-16T11:44:02.384Z,1018.46
2019-05-16T11:45:02.751Z,1018.46
2019-05-16T11:46:01.917Z,1018.39
2019-05-16T11:47:02.199Z,1018.39
2019-05-16T11:48:02.093Z,1018.39
2019-05-16T11:49:02.380Z,1018.39
2019-05-16T11:50:02.605Z,1018.34
2019-05-16T11:51:01.827Z,1018.34
2019-05-16T11:52:01.877Z,1018.34
2019-05-16T11:53:01.997Z,1018.34
2019-05-16T11:54:02.349Z,1018.13
2019-05-16T11:55:02.588Z,1018.13
2019-05-16T11:56:02.604Z,1018.13
2019-05-16T11:57:02.071Z,1018.13
2019-05-16T11:58:02.324Z,1018.13
2019-05-16T11:59:02.607Z,1018.13
2019-05-16T12:00:03.452Z,1018.13
2019-05-16T12:01:02.376Z,1018.13
2019-05-16T12:02:02.561Z,1018.21
2019-05-16T12:03:01.829Z,1018.21
2019-05-16T12:04:02.065Z,1018.21
2019-05-16T12:05:02.394Z,1018.21
2019-05-16T12:06:02.691Z,1018.21
2019-05-16T12:07:01.757Z,1018.21
2019-05-16T12:08:02.031Z,1018.21
2019-05-16T12:09:02.259Z,1018.21